Time;durP1;ratioP1;P1;durP2;ratioP2;P2;SDS_P1;SDS_P2;PMS_P1;PMS_P2;Temp;Humidity;BMP_temperature;BMP_pressure;BME280_temperature;BME280_humidity;BME280_pressure;Samples;Min_cycle;Max_cycle;Signal;HPM_P1;HPM_P2
2024/03/26 00:01:53;;;;;;;;;;;;;;;22.48;29.09;98840.88;4101015;29;19926;-70
2024/03/26 00:03:54;;;;;;;;;;;;;;;22.46;29.19;98840.22;4084390;29;20675;-70
2024/03/26 00:05:56;;;;;;;;;;;;;;;22.48;29.08;98840.06;4100741;29;19937;-71
2024/03/26 00:07:56;;;;;;;;;;;;;;;22.47;28.78;98833.84;4100994;29;19926;-71
2024/03/26 00:09:57;;;;;;;;;;;;;;;22.45;29.16;98830.50;4100964;29;20370;-71
2024/03/26 00:11:58;;;;;;;;;;;;;;;22.44;29.16;98831.53;4100555;29;20099;-71
2024/03/26 00:13:59;;;;;;;;;;;;;;;22.45;29.06;98825.16;4100758;29;19977;-70
2024/03/26 00:16:00;;;;;;;;;;;;;;;22.46;28.92;98821.47;4100842;29;20024;-71
2024/03/26 00:18:00;;;;;;;;;;;;;;;22.48;28.99;98819.44;4100414;29;20355;-71
2024/03/26 00:20:02;;;;;;;;;;;;;;;22.48;29.27;98815.94;4100377;29;20001;-70
2024/03/26 00:22:02;;;;;;;;;;;;;;;22.51;28.93;98815.56;4100472;29;19929;-71
2024/03/26 00:24:04;;;;;;;;;;;;;;;22.52;29.01;98813.72;4100712;29;19923;-71
2024/03/26 00:26:05;;;;;;;;;;;;;;;22.52;29.11;98816.38;4100665;29;19922;-72
2024/03/26 00:28:06;;;;;;;;;;;;;;;22.51;28.95;98817.44;4100767;29;20389;-71
2024/03/26 00:30:07;;;;;;;;;;;;;;;22.50;28.92;98816.56;4100373;29;19978;-72
2024/03/26 00:32:07;;;;;;;;;;;;;;;22.51;28.68;98822.78;4100582;29;19923;-72
2024/03/26 00:34:08;;;;;;;;;;;;;;;22.47;29.23;98822.31;4084459;29;19929;-72
2024/03/26 00:36:10;;;;;;;;;;;;;;;22.47;28.95;98823.13;4100543;29;20329;-72
2024/03/26 00:38:11;;;;;;;;;;;;;;;22.46;29.14;98821.47;4100400;29;20271;-72
2024/03/26 00:40:12;;;;;;;;;;;;;;;22.45;28.94;98817.09;4108950;28;19984;-71
2024/03/26 00:42:13;;;;;;;;;;;;;;;22.45;29.33;98817.09;4100499;29;19926;-72
2024/03/26 00:44:14;;;;;;;;;;;;;;;22.47;29.00;98816.94;4099017;28;19922;-71
2024/03/26 00:46:15;;;;;;;;;;;;;;;22.46;29.02;98812.59;4068656;29;19969;-71
2024/03/26 00:48:16;;;;;;;;;;;;;;;22.49;29.18;98812.22;4099810;29;19969;-71
2024/03/26 00:50:18;;;;;;;;;;;;;;;22.52;29.03;98803.00;4100291;29;19929;-71
2024/03/26 00:52:19;;;;;;;;;;;;;;;22.51;29.01;98809.38;4100060;29;20398;-71
2024/03/26 00:54:20;;;;;;;;;;;;;;;22.49;29.12;98806.88;4084271;29;19922;-72
2024/03/26 00:56:20;;;;;;;;;;;;;;;22.51;29.19;98804.03;4100040;29;20469;-72
2024/03/26 00:58:21;;;;;;;;;;;;;;;22.49;29.31;98807.72;4100091;29;19932;-71
2024/03/26 01:00:23;;;;;;;;;;;;;;;22.48;29.23;98802.56;4100012;29;20025;-72
2024/03/26 01:02:23;;;;;;;;;;;;;;;22.46;28.94;98797.34;4099746;29;19922;-71
2024/03/26 01:04:24;;;;;;;;;;;;;;;22.47;29.02;98799.03;4084087;29;19975;-71
2024/03/26 01:06:25;;;;;;;;;;;;;;;22.46;28.97;98800.03;4100164;29;19927;-72
2024/03/26 01:08:26;;;;;;;;;;;;;;;22.45;29.07;98801.03;4099915;29;20346;-72
2024/03/26 01:10:27;;;;;;;;;;;;;;;22.46;29.31;98799.22;4084175;29;20025;-72
2024/03/26 01:12:30;;;;;;;;;;;;;;;22.47;29.42;98782.13;4099973;29;19949;-72
2024/03/26 01:14:30;;;;;;;;;;;;;;;22.48;29.19;98794.50;4100084;29;19922;-72
2024/03/26 01:16:31;;;;;;;;;;;;;;;22.49;29.14;98788.13;4099404;29;20417;-72
2024/03/26 01:18:32;;;;;;;;;;;;;;;22.49;29.17;98780.94;4099774;29;19923;-72
2024/03/26 01:20:33;;;;;;;;;;;;;;;22.49;29.37;98777.41;4099733;29;20318;-72
2024/03/26 01:22:34;;;;;;;;;;;;;;;22.51;29.40;98787.97;4099829;29;19923;-72
2024/03/26 01:24:35;;;;;;;;;;;;;;;22.51;28.98;98778.06;4099884;29;19928;-72
2024/03/26 01:26:35;;;;;;;;;;;;;;;22.50;29.31;98781.75;4099468;29;20472;-71
2024/03/26 01:28:36;;;;;;;;;;;;;;;22.49;29.33;98782.75;4099797;29;19930;-72
2024/03/26 01:30:37;;;;;;;;;;;;;;;22.46;29.25;98770.56;4099191;29;20013;-71
2024/03/26 01:32:38;;;;;;;;;;;;;;;22.47;29.03;98766.06;4099878;29;19965;-72
2024/03/26 01:34:38;;;;;;;;;;;;;;;22.46;29.05;98767.88;4099694;29;19973;-72
2024/03/26 01:36:39;;;;;;;;;;;;;;;22.45;29.30;98771.56;4099512;29;19928;-71
2024/03/26 01:38:40;;;;;;;;;;;;;;;22.46;29.20;98765.22;4099388;29;19930;-72
2024/03/26 01:40:44;;;;;;;;;;;;;;;22.46;29.14;98759.03;4108443;28;19961;-72
2024/03/26 01:42:45;;;;;;;;;;;;;;;22.47;29.14;98755.34;4099421;29;19923;-71
2024/03/26 01:44:46;;;;;;;;;;;;;;;22.48;29.24;98755.16;4099372;29;20413;-71
2024/03/26 01:46:47;;;;;;;;;;;;;;;22.48;29.07;98763.19;4099022;29;19973;-71
2024/03/26 01:48:48;;;;;;;;;;;;;;;22.51;29.24;98758.50;4099326;29;19973;-71
2024/03/26 01:50:49;;;;;;;;;;;;;;;22.48;29.27;98760.50;4099547;29;19922;-71
2024/03/26 01:52:50;;;;;;;;;;;;;;;22.48;29.42;98768.53;4099497;29;20404;-71
2024/03/26 01:54:51;;;;;;;;;;;;;;;22.49;29.33;98764.00;4098891;28;19922;-71
2024/03/26 01:56:54;;;;;;;;;;;;;;;22.48;29.20;98760.50;4099351;29;19926;-71
2024/03/26 01:58:54;;;;;;;;;;;;;;;22.45;29.56;98752.81;4099051;29;19923;-71
2024/03/26 02:00:57;;;;;;;;;;;;;;;22.44;29.57;98753.84;4098759;29;20002;-72
2024/03/26 02:02:58;;;;;;;;;;;;;;;22.44;29.32;98755.69;4099194;29;19928;-71
2024/03/26 02:04:59;;;;;;;;;;;;;;;22.45;29.77;98754.69;4099142;29;20300;-72
2024/03/26 02:07:00;;;;;;;;;;;;;;;22.42;29.74;98753.19;4099272;29;20336;-71
2024/03/26 02:09:02;;;;;;;;;;;;;;;22.44;29.33;98753.84;4098902;29;19965;-71
2024/03/26 02:11:03;;;;;;;;;;;;;;;22.45;29.90;98760.03;4099145;29;20314;-71
2024/03/26 02:13:03;;;;;;;;;;;;;;;22.45;29.82;98755.50;4098959;29;19922;-71
2024/03/26 02:15:04;;;;;;;;;;;;;;;22.45;29.89;98750.16;4098656;29;19922;-71
2024/03/26 02:17:06;;;;;;;;;;;;;;;22.45;29.86;98744.78;4098784;29;20325;-71
2024/03/26 02:19:07;;;;;;;;;;;;;;;22.48;29.76;98754.34;4099144;29;20277;-71
2024/03/26 02:21:08;;;;;;;;;;;;;;;22.48;29.99;98748.97;4098874;29;19922;-70
2024/03/26 02:23:09;;;;;;;;;;;;;;;22.46;29.71;98742.97;4098638;29;20400;-71
2024/03/26 02:25:10;;;;;;;;;;;;;;;22.46;30.03;98746.44;4098741;29;19973;-70
2024/03/26 02:27:11;;;;;;;;;;;;;;;22.46;29.96;98748.31;4098978;29;19930;-71
2024/03/26 02:29:11;;;;;;;;;;;;;;;22.42;30.14;98742.47;4098359;29;19930;-71
2024/03/26 02:31:12;;;;;;;;;;;;;;;22.43;30.08;98741.47;4098930;29;19926;-71
2024/03/26 02:33:13;;;;;;;;;;;;;;;22.44;29.89;98743.16;4098826;29;20020;-71
2024/03/26 02:35:14;;;;;;;;;;;;;;;22.44;30.30;98750.31;4098565;29;20053;-71
2024/03/26 02:37:15;;;;;;;;;;;;;;;22.44;30.37;98753.84;4098551;29;19974;-70
2024/03/26 02:39:15;;;;;;;;;;;;;;;22.44;29.98;98743.16;4102268;28;20013;-72
2024/03/26 02:41:16;;;;;;;;;;;;;;;22.47;30.19;98741.94;4103300;28;19929;-71
2024/03/26 02:43:17;;;;;;;;;;;;;;;22.49;30.21;98746.09;4098317;29;19926;-71
2024/03/26 02:45:18;;;;;;;;;;;;;;;22.49;29.96;98734.53;4098176;29;20412;-71
2024/03/26 02:47:19;;;;;;;;;;;;;;;22.48;30.30;98736.41;4098637;29;19922;-71
2024/03/26 02:49:20;;;;;;;;;;;;;;;22.48;30.13;98733.72;4098529;29;19986;-71
2024/03/26 02:51:21;;;;;;;;;;;;;;;22.48;30.44;98733.72;4098725;29;19922;-72
2024/03/26 02:53:23;;;;;;;;;;;;;;;22.48;30.28;98728.38;4098553;29;19923;-72
2024/03/26 02:55:24;;;;;;;;;;;;;;;22.47;30.16;98723.19;4098420;29;20394;-72
2024/03/26 02:57:25;;;;;;;;;;;;;;;22.44;30.44;98721.72;4082277;29;19923;-72
2024/03/26 02:59:25;;;;;;;;;;;;;;;22.45;30.26;98722.53;4097994;29;19923;-71
2024/03/26 03:01:29;;;;;;;;;;;;;;;22.44;30.61;98721.72;4098215;29;19940;-70
2024/03/26 03:03:30;;;;;;;;;;;;;;;22.45;30.48;98714.50;4098216;29;19922;-70
2024/03/26 03:05:31;;;;;;;;;;;;;;;22.43;30.51;98713.84;4098142;29;19929;-71
2024/03/26 03:07:31;;;;;;;;;;;;;;;22.46;30.55;98716.16;4097580;28;19989;-71
2024/03/26 03:09:32;;;;;;;;;;;;;;;22.47;30.73;98715.97;4098363;29;20419;-71
2024/03/26 03:11:33;;;;;;;;;;;;;;;22.47;30.67;98709.81;4098344;29;19922;-71
2024/03/26 03:13:34;;;;;;;;;;;;;;;22.47;30.38;98712.47;4097958;29;20373;-71
2024/03/26 03:15:35;;;;;;;;;;;;;;;22.48;30.47;98708.78;4098193;29;20006;-71
2024/03/26 03:17:35;;;;;;;;;;;;;;;22.48;30.71;98706.13;4098030;29;20332;-71
2024/03/26 03:19:36;;;;;;;;;;;;;;;22.45;30.50;98704.59;4098317;29;20009;-72
2024/03/26 03:21:37;;;;;;;;;;;;;;;22.44;30.62;98700.28;4098148;29;19981;-71
2024/03/26 03:23:38;;;;;;;;;;;;;;;22.44;30.66;98702.13;4082198;29;19923;-72
2024/03/26 03:25:39;;;;;;;;;;;;;;;22.42;30.67;98701.47;4098177;29;19962;-71
2024/03/26 03:27:40;;;;;;;;;;;;;;;22.43;30.89;98697.78;4097860;29;19928;-73
2024/03/26 03:29:41;;;;;;;;;;;;;;;22.42;30.58;98691.59;4098230;29;20413;-72
2024/03/26 03:31:43;;;;;;;;;;;;;;;22.42;31.14;98688.06;4098217;29;20020;-72
2024/03/26 03:33:43;;;;;;;;;;;;;;;22.43;30.81;98695.09;4098011;29;19929;-71
2024/03/26 03:35:44;;;;;;;;;;;;;;;22.44;30.91;98697.63;4098388;29;20453;-71
2024/03/26 03:37:45;;;;;;;;;;;;;;;22.47;30.86;98701.78;4097898;29;19930;-72
2024/03/26 03:39:46;;;;;;;;;;;;;;;22.47;30.93;98705.28;4106007;28;19921;-72
2024/03/26 03:41:47;;;;;;;;;;;;;;;22.47;30.97;98702.59;4098436;28;19981;-71
2024/03/26 03:43:48;;;;;;;;;;;;;;;22.48;31.13;98712.28;4098248;29;20382;-71
2024/03/26 03:45:48;;;;;;;;;;;;;;;22.48;31.11;98706.13;4081940;29;20021;-71
2024/03/26 03:47:49;;;;;;;;;;;;;;;22.48;31.17;98708.78;4098045;29;20008;-70
2024/03/26 03:49:50;;;;;;;;;;;;;;;22.46;30.79;98711.63;4097885;29;19929;-71
2024/03/26 03:51:51;;;;;;;;;;;;;;;22.45;31.07;98703.78;4098204;29;19930;-73
2024/03/26 03:53:52;;;;;;;;;;;;;;;22.44;31.22;98704.78;4098144;29;19929;-70
2024/03/26 03:55:53;;;;;;;;;;;;;;;22.45;31.04;98706.47;4097528;29;20306;-70
2024/03/26 03:57:54;;;;;;;;;;;;;;;22.45;31.28;98699.25;4097689;29;19969;-70
2024/03/26 03:59:55;;;;;;;;;;;;;;;22.43;31.19;98700.44;4097971;29;19923;-71
2024/03/26 04:01:56;;;;;;;;;;;;;;;22.43;31.20;98700.44;4097861;29;19929;-70
2024/03/26 04:03:56;;;;;;;;;;;;;;;22.45;31.37;98701.09;4097779;29;19970;-71
2024/03/26 04:06:01;;;;;;;;;;;;;;;22.46;31.21;98705.47;4097655;29;19970;-70
2024/03/26 04:08:02;;;;;;;;;;;;;;;22.46;31.35;98702.78;4097653;29;19977;-70
2024/03/26 04:10:04;;;;;;;;;;;;;;;22.48;31.34;98706.13;4097770;29;19929;-71
2024/03/26 04:12:04;;;;;;;;;;;;;;;22.49;31.42;98705.94;4097716;29;20411;-71
2024/03/26 04:14:05;;;;;;;;;;;;;;;22.49;31.36;98708.59;4097709;29;19957;-71
2024/03/26 04:16:06;;;;;;;;;;;;;;;22.46;31.22;98706.28;4097666;29;19922;-70
2024/03/26 04:18:07;;;;;;;;;;;;;;;22.46;31.16;98708.94;4098059;28;19922;-72
2024/03/26 04:20:08;;;;;;;;;;;;;;;22.43;31.47;98708.47;4100784;29;19926;-70
2024/03/26 04:22:09;;;;;;;;;;;;;;;22.40;31.54;98709.69;4100448;29;20329;-71
2024/03/26 04:24:10;;;;;;;;;;;;;;;22.40;31.62;98711.53;4100777;29;19922;-70
2024/03/26 04:26:11;;;;;;;;;;;;;;;22.41;31.38;98702.50;4100368;29;19973;-69
2024/03/26 04:28:11;;;;;;;;;;;;;;;22.41;31.58;98713.22;4100856;29;20522;-70
2024/03/26 04:30:12;;;;;;;;;;;;;;;22.41;31.64;98700.63;4100435;29;19931;-70
2024/03/26 04:32:13;;;;;;;;;;;;;;;22.42;31.25;98710.34;4100632;29;19930;-70
2024/03/26 04:34:14;;;;;;;;;;;;;;;22.44;31.52;98708.31;4100562;29;20287;-71
2024/03/26 04:36:15;;;;;;;;;;;;;;;22.44;31.28;98713.69;4100477;29;20041;-71
2024/03/26 04:38:16;;;;;;;;;;;;;;;22.45;31.55;98701.09;4084591;29;19930;-71
2024/03/26 04:40:17;;;;;;;;;;;;;;;22.46;31.46;98708.94;4111951;28;19922;-71
2024/03/26 04:42:17;;;;;;;;;;;;;;;22.46;31.46;98702.78;4104749;28;19973;-72
2024/03/26 04:44:18;;;;;;;;;;;;;;;22.45;31.52;98701.09;4100301;29;19922;-71
2024/03/26 04:46:19;;;;;;;;;;;;;;;22.44;31.55;98697.63;4100113;29;19922;-71
2024/03/26 04:48:20;;;;;;;;;;;;;;;22.43;31.10;98700.44;4100601;29;20020;-71
2024/03/26 04:50:21;;;;;;;;;;;;;;;22.42;31.68;98699.63;4100411;29;19937;-70
2024/03/26 04:52:22;;;;;;;;;;;;;;;22.41;31.31;98700.63;4100294;29;20460;-71
2024/03/26 04:54:23;;;;;;;;;;;;;;;22.41;31.50;98691.78;4100175;29;20012;-71
2024/03/26 04:56:24;;;;;;;;;;;;;;;22.40;31.56;98698.97;4099983;29;19985;-71
2024/03/26 04:58:25;;;;;;;;;;;;;;;22.40;31.62;98692.78;4100064;29;19982;-71
2024/03/26 05:00:26;;;;;;;;;;;;;;;22.41;31.36;98691.78;4099983;29;19922;-70
2024/03/26 05:02:26;;;;;;;;;;;;;;;22.41;31.57;98689.91;4100180;29;19950;-72
2024/03/26 05:04:27;;;;;;;;;;;;;;;22.41;31.60;98681.88;4084453;29;19931;-71
2024/03/26 05:06:28;;;;;;;;;;;;;;;22.44;31.36;98678.84;4099919;29;20393;-71
2024/03/26 05:08:29;;;;;;;;;;;;;;;22.44;31.74;98684.22;4099935;29;19953;-71
2024/03/26 05:10:30;;;;;;;;;;;;;;;22.44;31.62;98680.69;4099810;29;19930;-71
2024/03/26 05:12:31;;;;;;;;;;;;;;;22.43;31.55;98679.03;4099914;29;19926;-71
2024/03/26 05:14:31;;;;;;;;;;;;;;;22.41;31.73;98681.88;4099911;29;19922;-71
2024/03/26 05:16:32;;;;;;;;;;;;;;;22.41;31.45;98678.41;4099835;29;19923;-71
2024/03/26 05:18:33;;;;;;;;;;;;;;;22.38;31.55;98679.56;4099701;29;19963;-70
2024/03/26 05:20:35;;;;;;;;;;;;;;;22.39;31.81;98683.91;4099867;29;20476;-71
2024/03/26 05:22:35;;;;;;;;;;;;;;;22.39;31.54;98675.06;4099548;29;19923;-70
2024/03/26 05:24:39;;;;;;;;;;;;;;;22.40;31.67;98679.41;4099691;29;20477;-71
2024/03/26 05:26:40;;;;;;;;;;;;;;;22.40;31.57;98682.06;4099715;29;20529;-71
2024/03/26 05:28:40;;;;;;;;;;;;;;;22.41;31.68;98683.75;4099669;29;20017;-71
2024/03/26 05:30:41;;;;;;;;;;;;;;;22.41;31.87;98681.06;4099163;28;20101;-70
2024/03/26 05:32:42;;;;;;;;;;;;;;;22.44;31.77;98689.56;4099859;29;19933;-71
2024/03/26 05:34:43;;;;;;;;;;;;;;;22.43;31.65;98679.88;4099608;29;19954;-72
2024/03/26 05:36:44;;;;;;;;;;;;;;;22.45;31.80;98683.19;4099525;29;20398;-71
2024/03/26 05:38:44;;;;;;;;;;;;;;;22.44;31.83;98681.53;4099289;29;19922;-71
2024/03/26 05:40:46;;;;;;;;;;;;;;;22.43;31.87;98687.06;4108201;28;19922;-71
2024/03/26 05:42:47;;;;;;;;;;;;;;;22.40;31.99;98680.22;4099547;29;19929;-71
2024/03/26 05:44:48;;;;;;;;;;;;;;;22.40;31.60;98682.91;4083921;29;20349;-71
2024/03/26 05:46:49;;;;;;;;;;;;;;;22.38;31.93;98684.06;4083778;29;19958;-71
2024/03/26 05:48:50;;;;;;;;;;;;;;;22.38;31.80;98684.06;4099523;29;19922;-72
2024/03/26 05:50:54;;;;;;;;;;;;;;;22.38;31.70;98684.91;4099612;29;20297;-71
2024/03/26 05:52:54;;;;;;;;;;;;;;;22.38;31.85;98684.91;4099027;29;20283;-71
2024/03/26 05:54:55;;;;;;;;;;;;;;;22.38;31.68;98681.38;4099276;29;20402;-70
2024/03/26 05:56:56;;;;;;;;;;;;;;;22.40;31.95;98680.22;4099532;29;20001;-72
2024/03/26 05:58:57;;;;;;;;;;;;;;;22.39;32.10;98675.88;4099348;29;20335;-71
2024/03/26 06:01:02;;;;;;;;;;;;;;;22.42;32.06;98685.38;4099251;29;20353;-71
2024/03/26 06:03:03;;;;;;;;;;;;;;;22.43;32.19;98676.34;4099464;29;20420;-71
2024/03/26 06:05:04;;;;;;;;;;;;;;;22.44;31.78;98676.19;4099053;29;19922;-71
2024/03/26 06:07:05;;;;;;;;;;;;;;;22.41;32.10;98671.19;4098844;29;19927;-71
2024/03/26 06:09:07;;;;;;;;;;;;;;;22.41;32.17;98681.88;4099345;29;19928;-72
2024/03/26 06:11:08;;;;;;;;;;;;;;;22.40;32.19;98676.72;4099099;29;19926;-70
2024/03/26 06:13:09;;;;;;;;;;;;;;;22.40;32.13;98676.72;4099242;29;19934;-70
2024/03/26 06:15:09;;;;;;;;;;;;;;;22.38;31.95;98673.34;4098925;29;20326;-71
2024/03/26 06:17:11;;;;;;;;;;;;;;;22.37;32.07;98669.84;4098897;29;19926;-71
2024/03/26 06:19:11;;;;;;;;;;;;;;;22.38;32.06;98670.66;4099098;29;19923;-71
2024/03/26 06:21:13;;;;;;;;;;;;;;;22.37;32.33;98669.00;4098838;29;19926;-71
2024/03/26 06:23:14;;;;;;;;;;;;;;;22.38;32.14;98671.53;4098655;29;19981;-70
2024/03/26 06:25:15;;;;;;;;;;;;;;;22.38;32.42;98668.84;4083268;29;19929;-70
2024/03/26 06:27:16;;;;;;;;;;;;;;;22.38;32.45;98673.34;4098679;29;20359;-71
2024/03/26 06:29:16;;;;;;;;;;;;;;;22.42;32.28;98672.00;4083001;29;19934;-71
2024/03/26 06:31:17;;;;;;;;;;;;;;;22.42;32.53;98672.00;4098972;29;19922;-71
2024/03/26 06:33:18;;;;;;;;;;;;;;;22.43;32.54;98674.50;4098748;29;20322;-70
2024/03/26 06:35:19;;;;;;;;;;;;;;;22.41;32.31;98667.69;4098418;29;19969;-70
2024/03/26 06:37:20;;;;;;;;;;;;;;;22.41;32.59;98679.22;4098706;29;20005;-70
2024/03/26 06:39:21;;;;;;;;;;;;;;;22.39;32.50;98662.47;4102992;28;19928;-70
2024/03/26 06:41:22;;;;;;;;;;;;;;;22.39;32.53;98678.56;4102150;28;19953;-71
2024/03/26 06:43:23;;;;;;;;;;;;;;;22.38;32.31;98666.16;4098400;29;20009;-70
2024/03/26 06:45:24;;;;;;;;;;;;;;;22.39;32.69;98669.69;4098844;29;20327;-70
2024/03/26 06:47:25;;;;;;;;;;;;;;;22.39;32.67;98667.84;4098740;29;19969;-70
2024/03/26 06:49:26;;;;;;;;;;;;;;;22.39;32.75;98672.38;4098693;29;19942;-70
2024/03/26 06:51:27;;;;;;;;;;;;;;;22.39;32.73;98661.66;4098034;29;20339;-70
2024/03/26 06:53:28;;;;;;;;;;;;;;;22.40;32.79;98664.16;4098637;29;19923;-70
2024/03/26 06:55:29;;;;;;;;;;;;;;;22.43;32.73;98660.28;4098385;29;20401;-71
2024/03/26 06:57:30;;;;;;;;;;;;;;;22.41;32.56;98659.63;4098318;29;19922;-70
2024/03/26 06:59:32;;;;;;;;;;;;;;;22.43;32.77;98660.28;4098220;29;19922;-69
2024/03/26 07:01:33;;;;;;;;;;;;;;;22.45;32.78;98661.75;4098469;29;20016;-71
2024/03/26 07:03:33;;;;;;;;;;;;;;;22.45;32.63;98661.75;4098447;29;19962;-70
2024/03/26 07:05:34;;;;;;;;;;;;;;;22.45;32.83;98655.56;4098194;29;20044;-69
2024/03/26 07:07:35;;;;;;;;;;;;;;;22.42;32.64;98650.56;4098283;29;20024;-70
2024/03/26 07:09:38;;;;;;;;;;;;;;;22.42;32.71;98658.59;4098169;29;19922;-70
2024/03/26 07:11:40;;;;;;;;;;;;;;;22.41;33.04;98652.44;4098189;29;20421;-70
2024/03/26 07:13:41;;;;;;;;;;;;;;;22.41;32.92;98656.97;4098496;29;20330;-70
2024/03/26 07:15:42;;;;;;;;;;;;;;;22.42;33.01;98650.56;4098264;29;20079;-71
2024/03/26 07:17:43;;;;;;;;;;;;;;;22.44;32.90;98652.06;4097942;29;19965;-71
2024/03/26 07:19:44;;;;;;;;;;;;;;;22.44;33.03;98651.22;4098142;29;20405;-71
2024/03/26 07:21:45;;;;;;;;;;;;;;;22.45;33.08;98650.22;4098163;29;19929;-70
2024/03/26 07:23:46;;;;;;;;;;;;;;;22.47;32.93;98645.53;4098241;29;19990;-70
2024/03/26 07:25:47;;;;;;;;;;;;;;;22.48;32.88;98641.84;4082354;29;19958;-69
2024/03/26 07:27:48;;;;;;;;;;;;;;;22.47;33.00;98638.31;4098129;29;19945;-70
2024/03/26 07:29:48;;;;;;;;;;;;;;;22.49;33.24;98638.09;4098280;29;19930;-70
2024/03/26 07:31:49;;;;;;;;;;;;;;;22.47;33.15;98635.63;4098390;29;19922;-71
2024/03/26 07:33:50;;;;;;;;;;;;;;;22.46;33.08;98630.47;4097630;29;20475;-70
2024/03/26 07:35:51;;;;;;;;;;;;;;;22.44;33.05;98630.66;4098134;29;19927;-70
2024/03/26 07:37:52;;;;;;;;;;;;;;;22.43;33.44;98636.16;4098180;29;19922;-70
2024/03/26 07:39:53;;;;;;;;;;;;;;;22.41;33.03;98635.53;4106804;28;20403;-70
2024/03/26 07:41:54;;;;;;;;;;;;;;;22.39;33.22;98624.97;4097868;29;19923;-70
2024/03/26 07:43:55;;;;;;;;;;;;;;;22.41;33.28;98624.81;4098006;29;19969;-71
2024/03/26 07:45:55;;;;;;;;;;;;;;;22.41;33.61;98627.50;4098298;29;19978;-71
2024/03/26 07:47:57;;;;;;;;;;;;;;;22.40;33.64;98636.56;4097887;29;19923;-70
2024/03/26 07:49:59;;;;;;;;;;;;;;;22.40;33.59;98629.34;4097993;29;19923;-71
2024/03/26 07:52:00;;;;;;;;;;;;;;;22.41;33.51;98635.53;4098205;29;19929;-70
2024/03/26 07:54:00;;;;;;;;;;;;;;;22.41;33.31;98622.97;4099878;28;20033;-71
2024/03/26 07:56:01;;;;;;;;;;;;;;;22.42;33.49;98630.00;4101271;29;19933;-71
2024/03/26 07:58:04;;;;;;;;;;;;;;;22.44;33.47;98622.63;4101104;29;20382;-70
2024/03/26 08:00:10;;;;;;;;;;;;;;;22.44;33.78;98621.75;4100707;29;19923;-71
2024/03/26 08:02:11;;;;;;;;;;;;;;;22.42;33.64;98619.28;4100708;29;19923;-71
2024/03/26 08:04:12;;;;;;;;;;;;;;;22.41;33.43;98628.31;4100863;29;20049;-70
2024/03/26 08:06:13;;;;;;;;;;;;;;;22.40;33.72;98623.97;4101066;29;19937;-70
2024/03/26 08:08:13;;;;;;;;;;;;;;;22.40;33.83;98618.63;4101054;29;19927;-71
2024/03/26 08:10:14;;;;;;;;;;;;;;;22.40;33.95;98617.81;4100863;29;20440;-71
2024/03/26 08:12:15;;;;;;;;;;;;;;;22.40;33.88;98618.63;4100783;29;19922;-70
2024/03/26 08:14:16;;;;;;;;;;;;;;;22.38;33.96;98612.59;4100771;29;19922;-70
2024/03/26 08:16:17;;;;;;;;;;;;;;;22.39;34.02;98614.28;4100744;29;20361;-71
2024/03/26 08:18:18;;;;;;;;;;;;;;;22.38;33.73;98614.44;4100191;29;19926;-71
2024/03/26 08:20:19;;;;;;;;;;;;;;;22.38;34.12;98611.75;4101036;29;19922;-71
2024/03/26 08:22:22;;;;;;;;;;;;;;;22.38;34.20;98607.25;4100654;29;20445;-71
2024/03/26 08:24:23;;;;;;;;;;;;;;;22.40;33.84;98605.22;4069067;29;19923;-70
2024/03/26 08:26:24;;;;;;;;;;;;;;;22.40;34.14;98610.59;4100751;29;19929;-71
2024/03/26 08:28:25;;;;;;;;;;;;;;;22.41;34.15;98608.75;4100819;29;20329;-70
2024/03/26 08:30:26;;;;;;;;;;;;;;;22.42;33.94;98602.34;4100614;29;19922;-70
2024/03/26 08:32:27;;;;;;;;;;;;;;;22.41;34.15;98601.53;4084696;29;20295;-71
2024/03/26 08:34:28;;;;;;;;;;;;;;;22.40;33.95;98599.06;4100684;29;20042;-70
2024/03/26 08:36:28;;;;;;;;;;;;;;;22.39;34.23;98592.84;4084778;29;19926;-70
2024/03/26 08:38:29;;;;;;;;;;;;;;;22.39;33.99;98598.19;4100423;29;19922;-70
2024/03/26 08:40:30;;;;;;;;;;;;;;;22.39;33.99;98592.03;4109017;28;19922;-73
2024/03/26 08:42:31;;;;;;;;;;;;;;;22.39;34.31;98594.72;4100394;29;19929;-72
2024/03/26 08:44:32;;;;;;;;;;;;;;;22.39;34.34;98595.53;4100632;29;20005;-72
2024/03/26 08:46:33;;;;;;;;;;;;;;;22.38;34.25;98599.22;4100358;29;19930;-72
2024/03/26 08:48:33;;;;;;;;;;;;;;;22.39;33.96;98595.53;4100603;29;20029;-69
2024/03/26 08:50:34;;;;;;;;;;;;;;;22.39;34.57;98592.84;4100459;29;20025;-70
2024/03/26 08:52:35;;;;;;;;;;;;;;;22.40;34.38;98591.84;4100273;29;20013;-72
2024/03/26 08:54:36;;;;;;;;;;;;;;;22.41;34.14;98592.69;4100094;29;19977;-70
2024/03/26 08:56:37;;;;;;;;;;;;;;;22.41;34.41;98581.97;4100546;29;19922;-70
2024/03/26 08:58:38;;;;;;;;;;;;;;;22.42;34.53;98587.13;4100076;29;19929;-71
2024/03/26 09:00:38;;;;;;;;;;;;;;;22.45;34.32;98583.25;4099764;29;19926;-69
2024/03/26 09:02:39;;;;;;;;;;;;;;;22.42;34.39;98579.09;4100106;29;20445;-70
2024/03/26 09:04:40;;;;;;;;;;;;;;;22.43;34.57;98579.91;4099308;28;19957;-70
2024/03/26 09:06:41;;;;;;;;;;;;;;;22.42;34.52;98576.41;4099960;29;20394;-69
2024/03/26 09:08:42;;;;;;;;;;;;;;;22.40;34.49;98577.63;4100121;29;19928;-70
2024/03/26 09:10:43;;;;;;;;;;;;;;;22.39;34.61;98574.09;4100018;29;19933;-70
2024/03/26 09:12:44;;;;;;;;;;;;;;;22.38;34.43;98574.25;4100167;29;19929;-69
2024/03/26 09:14:44;;;;;;;;;;;;;;;22.38;34.66;98572.44;4099718;29;19922;-70
2024/03/26 09:16:45;;;;;;;;;;;;;;;22.37;34.59;98573.44;4099907;29;19953;-70
2024/03/26 09:18:46;;;;;;;;;;;;;;;22.37;34.49;98570.75;4099734;29;20279;-70
2024/03/26 09:20:47;;;;;;;;;;;;;;;22.36;34.81;98571.78;4099943;29;19922;-71
2024/03/26 09:22:48;;;;;;;;;;;;;;;22.37;34.49;98565.41;4099700;29;19922;-72
2024/03/26 09:24:49;;;;;;;;;;;;;;;22.39;34.74;98566.06;4099534;29;19977;-71
2024/03/26 09:26:49;;;;;;;;;;;;;;;22.40;34.49;98561.56;4083829;29;19927;-71
2024/03/26 09:28:50;;;;;;;;;;;;;;;22.41;34.70;98569.41;4099745;29;19922;-72
2024/03/26 09:30:51;;;;;;;;;;;;;;;22.42;34.73;98564.84;4099388;29;19922;-71
2024/03/26 09:32:55;;;;;;;;;;;;;;;22.42;34.73;98565.72;4099610;29;19922;-71
2024/03/26 09:34:56;;;;;;;;;;;;;;;22.41;34.55;98561.38;4099599;29;19926;-71
2024/03/26 09:36:56;;;;;;;;;;;;;;;22.40;34.52;98562.38;4099884;29;19998;-71
2024/03/26 09:38:58;;;;;;;;;;;;;;;22.39;34.77;98560.72;4100702;28;20129;-71
2024/03/26 09:41:01;;;;;;;;;;;;;;;22.40;34.58;98557.03;4106742;28;20267;-71
2024/03/26 09:43:03;;;;;;;;;;;;;;;22.41;34.59;98557.88;4099391;29;19922;-71
2024/03/26 09:45:05;;;;;;;;;;;;;;;22.42;34.62;98551.47;4099327;29;20330;-71
2024/03/26 09:47:06;;;;;;;;;;;;;;;22.40;34.55;98548.16;4099271;29;20278;-72
2024/03/26 09:49:08;;;;;;;;;;;;;;;22.40;34.71;98548.16;4099426;29;19944;-71
2024/03/26 09:51:12;;;;;;;;;;;;;;;22.40;34.90;98556.19;4099424;29;19926;-71
2024/03/26 09:53:16;;;;;;;;;;;;;;;22.39;34.91;98546.50;4099235;29;19929;-71
2024/03/26 09:55:18;;;;;;;;;;;;;;;22.41;34.76;98545.28;4099458;29;19922;-71
2024/03/26 09:57:18;;;;;;;;;;;;;;;22.43;34.70;98553.13;4099188;29;19922;-72
2024/03/26 09:59:19;;;;;;;;;;;;;;;22.43;34.87;98537.06;4098632;29;19969;-71
2024/03/26 10:01:24;;;;;;;;;;;;;;;22.43;34.85;98539.75;4083330;29;19958;-71
2024/03/26 10:03:27;;;;;;;;;;;;;;;22.42;34.94;98543.44;4097672;29;19927;-71
2024/03/26 10:05:30;;;;;;;;;;;;;;;22.42;34.94;98533.56;4097898;29;20041;-71
2024/03/26 10:07:31;;;;;;;;;;;;;;;22.41;35.00;98537.25;4097338;29;19923;-70
2024/03/26 10:09:32;;;;;;;;;;;;;;;22.41;35.04;98539.94;4098563;29;19933;-71
2024/03/26 10:11:34;;;;;;;;;;;;;;;22.40;34.77;98537.44;4098967;29;20433;-71
2024/03/26 10:13:35;;;;;;;;;;;;;;;22.38;35.14;98534.94;4098543;29;19929;-72
2024/03/26 10:15:39;;;;;;;;;;;;;;;22.38;34.72;98537.63;4098975;29;19930;-71
2024/03/26 10:17:40;;;;;;;;;;;;;;;22.38;35.10;98531.41;4098663;28;19930;-72
2024/03/26 10:19:41;;;;;;;;;;;;;;;22.38;34.72;98528.72;4097764;29;19923;-72
2024/03/26 10:21:46;;;;;;;;;;;;;;;22.39;34.77;98523.22;4097641;29;20692;-72
2024/03/26 10:23:47;;;;;;;;;;;;;;;22.39;34.98;98527.75;4098697;29;19932;-71
2024/03/26 10:25:48;;;;;;;;;;;;;;;22.41;35.13;98525.72;4098789;29;19986;-72
2024/03/26 10:27:52;;;;;;;;;;;;;;;22.41;35.14;98517.69;4098544;29;20325;-71
2024/03/26 10:29:52;;;;;;;;;;;;;;;22.41;34.89;98513.16;4098699;29;20262;-71
2024/03/26 10:31:54;;;;;;;;;;;;;;;22.43;35.07;98515.63;4098533;29;19929;-71